createdAt,value
2019-03-02T00:01:35.391Z,9.80
2019-03-02T00:04:09.682Z,9.17
2019-03-02T00:06:37.023Z,8.50
2019-03-02T00:09:07.974Z,9.13
2019-03-02T00:11:38.016Z,8.00
2019-03-02T00:14:08.018Z,8.20
2019-03-02T00:16:39.753Z,7.63
2019-03-02T00:19:09.746Z,7.60
2019-03-02T00:21:39.755Z,8.63
2019-03-02T00:24:09.842Z,7.70
2019-03-02T00:26:42.851Z,7.40
2019-03-02T00:29:11.970Z,7.83
2019-03-02T00:31:42.148Z,7.40
2019-03-02T00:34:12.367Z,7.10
2019-03-02T00:36:42.321Z,7.30
2019-03-02T00:39:15.611Z,7.30
2019-03-02T00:41:43.955Z,8.40
2019-03-02T00:44:13.999Z,7.20
2019-03-02T00:46:44.053Z,8.63
2019-03-02T00:49:14.061Z,7.50
2019-03-02T00:51:46.314Z,6.97
2019-03-02T00:54:15.666Z,7.20
2019-03-02T00:56:45.676Z,8.53
2019-03-02T00:59:15.640Z,7.73
2019-03-02T01:01:45.669Z,8.13
2019-03-02T01:04:15.616Z,8.30
2019-03-02T01:06:48.775Z,6.90
2019-03-02T01:09:17.232Z,6.87
2019-03-02T01:11:47.178Z,6.73
2019-03-02T01:14:17.205Z,8.07
2019-03-02T01:16:47.240Z,7.57
2019-03-02T01:19:17.637Z,7.47
2019-03-02T01:21:48.605Z,7.37
2019-03-02T01:24:18.549Z,7.43
2019-03-02T01:26:48.586Z,7.30
2019-03-02T01:29:20.407Z,7.47
2019-03-02T01:31:50.541Z,8.20
2019-03-02T01:34:20.502Z,8.37
2019-03-02T01:36:50.438Z,7.27
2019-03-02T01:39:20.456Z,8.80
2019-03-02T01:41:50.960Z,7.60
2019-03-02T01:44:22.046Z,8.47
2019-03-02T01:46:51.998Z,7.97
2019-03-02T01:49:21.963Z,8.47
2019-03-02T01:51:54.719Z,8.03
2019-03-02T01:54:23.576Z,8.00
2019-03-02T01:56:53.597Z,6.97
2019-03-02T01:59:23.619Z,6.77
2019-03-02T02:01:56.518Z,8.40
2019-03-02T02:04:25.384Z,8.47
2019-03-02T02:06:55.289Z,7.97
2019-03-02T02:09:25.249Z,8.63
2019-03-02T02:11:55.202Z,8.70
2019-03-02T02:14:25.211Z,7.97
2019-03-02T02:16:55.243Z,8.27
2019-03-02T02:19:25.279Z,8.30
2019-03-02T02:21:55.210Z,8.13
2019-03-02T02:24:25.755Z,8.40
2019-03-02T02:26:55.810Z,7.30
2019-03-02T02:29:25.779Z,7.90
2019-03-02T02:31:55.721Z,7.80
2019-03-02T02:34:25.735Z,7.00
2019-03-02T02:36:58.082Z,8.80
2019-03-02T02:39:29.083Z,9.10
2019-03-02T02:42:00.164Z,8.30
2019-03-02T02:44:33.042Z,7.90
2019-03-02T02:47:02.304Z,7.90
2019-03-02T02:49:32.292Z,7.43
2019-03-02T02:52:02.231Z,7.53
2019-03-02T02:54:32.349Z,7.83
2019-03-02T02:57:02.327Z,8.30
2019-03-02T02:59:34.084Z,6.50
2019-03-02T03:02:06.432Z,6.87
2019-03-02T03:04:38.185Z,7.60
2019-03-02T03:07:12.499Z,6.90
2019-03-02T03:10:07.897Z,8.10
2019-03-02T03:12:37.920Z,6.60
2019-03-02T03:15:07.976Z,7.70
2019-03-02T03:17:38.001Z,7.53
2019-03-02T03:20:10.356Z,8.40
2019-03-02T03:22:40.933Z,7.00
2019-03-02T03:25:14.026Z,8.30
2019-03-02T03:27:47.630Z,7.87
2019-03-02T03:30:14.594Z,6.90
2019-03-02T03:32:54.698Z,7.03
2019-03-02T03:35:17.820Z,8.03
2019-03-02T03:37:51.257Z,6.70
2019-03-02T03:40:20.069Z,7.30
2019-03-02T03:42:50.925Z,6.77
2019-03-02T03:45:21.041Z,7.40
2019-03-02T03:47:51.258Z,7.23
2019-03-02T03:50:21.214Z,7.60
2019-03-02T03:52:51.151Z,8.10
2019-03-02T03:55:25.096Z,7.20
2019-03-02T03:57:55.610Z,8.90
2019-03-02T04:00:24.385Z,8.67
2019-03-02T04:02:54.316Z,8.70
2019-03-02T04:05:24.339Z,9.37
2019-03-02T04:07:54.291Z,8.73
2019-03-02T04:10:27.461Z,10.07
2019-03-02T04:13:04.145Z,9.53
2019-03-02T04:15:27.615Z,8.70
2019-03-02T04:17:57.614Z,9.03
2019-03-02T04:20:33.967Z,9.60
2019-03-02T04:23:06.817Z,8.73
2019-03-02T04:25:36.928Z,7.70
2019-03-02T04:28:06.870Z,9.13
2019-03-02T04:30:36.906Z,9.33
2019-03-02T04:33:07.616Z,9.03
2019-03-02T04:35:37.701Z,9.47
2019-03-02T04:38:07.730Z,9.40
2019-03-02T04:40:37.753Z,8.90
2019-03-02T04:43:07.706Z,9.93
2019-03-02T04:45:39.767Z,9.23
2019-03-02T04:48:09.383Z,10.17
2019-03-02T04:50:39.425Z,9.60
2019-03-02T04:53:09.356Z,12.53
2019-03-02T04:55:39.378Z,10.20
2019-03-02T04:58:11.981Z,8.93
2019-03-02T05:00:41.034Z,9.10
2019-03-02T05:03:11.088Z,10.00
2019-03-02T05:05:43.441Z,9.40
2019-03-02T05:08:12.597Z,8.60
2019-03-02T05:10:42.694Z,9.67
2019-03-02T05:13:12.653Z,8.67
2019-03-02T05:15:42.656Z,9.60
2019-03-02T05:18:14.765Z,9.30
2019-03-02T05:20:44.652Z,9.40
2019-03-02T05:23:14.766Z,8.87
2019-03-02T05:25:44.883Z,9.13
2019-03-02T05:28:14.828Z,8.63
2019-03-02T05:30:44.765Z,10.83
2019-03-02T05:33:14.893Z,10.50
2019-03-02T05:35:47.771Z,9.10
2019-03-02T05:38:16.511Z,10.40
2019-03-02T05:40:46.450Z,10.03
2019-03-02T05:43:16.502Z,8.83
2019-03-02T05:45:46.967Z,9.03
2019-03-02T05:48:16.972Z,8.77
2019-03-02T05:50:46.901Z,8.70
2019-03-02T05:53:17.150Z,8.00
2019-03-02T05:55:49.976Z,9.70
2019-03-02T05:58:18.741Z,8.73
2019-03-02T06:00:48.707Z,9.13
2019-03-02T06:03:18.860Z,9.20
2019-03-02T06:05:48.813Z,9.73
2019-03-02T06:08:18.828Z,7.70
2019-03-02T06:10:48.769Z,8.77
2019-03-02T06:13:18.966Z,9.47
2019-03-02T06:15:49.126Z,8.37
2019-03-02T06:18:19.658Z,9.30
2019-03-02T06:20:49.605Z,8.27
2019-03-02T06:23:19.639Z,10.43
2019-03-02T06:25:49.664Z,8.60
2019-03-02T06:28:22.947Z,8.70
2019-03-02T06:30:51.385Z,8.70
2019-03-02T06:33:31.292Z,12.07
2019-03-02T06:36:04.863Z,10.10
2019-03-02T06:38:33.091Z,9.80
2019-03-02T06:41:03.126Z,10.00
2019-03-02T06:43:33.077Z,9.60
2019-03-02T06:46:04.204Z,11.50
2019-03-02T06:48:34.391Z,10.77
2019-03-02T06:51:04.319Z,9.73
2019-03-02T06:53:37.063Z,11.13
2019-03-02T06:56:05.926Z,9.27
2019-03-02T06:58:35.983Z,10.00
2019-03-02T07:01:05.932Z,11.07
2019-03-02T07:03:36.013Z,11.23
2019-03-02T07:06:08.572Z,9.80
2019-03-02T07:08:38.167Z,10.07
2019-03-02T07:11:08.083Z,10.27
2019-03-02T07:13:38.291Z,10.57
2019-03-02T07:16:08.204Z,10.53
2019-03-02T07:19:09.510Z,11.30
2019-03-02T07:21:41.493Z,11.23
2019-03-02T07:24:11.109Z,10.20
2019-03-02T07:26:41.030Z,10.23
2019-03-02T07:29:13.821Z,11.50
2019-03-02T07:31:42.601Z,11.47
2019-03-02T07:34:12.659Z,12.27
2019-03-02T07:36:42.699Z,12.47
2019-03-02T07:39:12.670Z,9.97
2019-03-02T07:41:42.591Z,11.00
2019-03-02T07:44:12.631Z,10.27
2019-03-02T07:46:44.104Z,9.50
2019-03-02T07:49:14.375Z,11.20
2019-03-02T07:51:44.324Z,10.73
2019-03-02T07:54:14.289Z,11.30
2019-03-02T07:56:44.199Z,9.83
2019-03-02T07:59:14.146Z,10.90
2019-03-02T08:01:44.071Z,10.03
2019-03-02T08:04:14.086Z,9.67
2019-03-02T08:06:44.022Z,10.30
2019-03-02T08:09:13.976Z,9.67
2019-03-02T08:11:45.489Z,10.20
2019-03-02T08:14:16.206Z,9.27
2019-03-02T08:16:46.301Z,9.93
2019-03-02T08:19:16.250Z,10.13
2019-03-02T08:21:46.325Z,9.73
2019-03-02T08:24:16.273Z,10.00
2019-03-02T08:26:46.195Z,9.70
2019-03-02T08:29:17.766Z,10.30
2019-03-02T08:31:47.790Z,10.57
2019-03-02T08:34:17.760Z,9.10
2019-03-02T08:36:50.305Z,9.47
2019-03-02T08:39:19.253Z,9.37
2019-03-02T08:41:49.266Z,11.10
2019-03-02T08:44:19.890Z,10.97
2019-03-02T08:46:49.943Z,10.03
2019-03-02T08:49:19.966Z,12.50
2019-03-02T08:51:49.964Z,11.20
2019-03-02T08:54:21.546Z,10.97
2019-03-02T08:56:51.444Z,11.03
2019-03-02T08:59:21.398Z,11.97
2019-03-02T09:01:54.839Z,10.90
2019-03-02T09:04:23.074Z,10.77
2019-03-02T09:06:52.984Z,10.57
2019-03-02T09:09:22.942Z,10.40
2019-03-02T09:11:52.870Z,10.70
2019-03-02T09:14:22.822Z,10.90
2019-03-02T09:16:52.848Z,10.03
2019-03-02T09:19:24.137Z,10.70
2019-03-02T09:21:55.609Z,11.20
2019-03-02T09:24:25.739Z,10.17
2019-03-02T09:26:55.809Z,11.13
2019-03-02T09:29:25.839Z,11.67
2019-03-02T09:31:55.840Z,10.93
2019-03-02T09:34:27.444Z,11.90
2019-03-02T09:36:57.458Z,10.80
2019-03-02T09:39:27.562Z,10.87
2019-03-02T09:41:58.084Z,12.23
2019-03-02T09:44:32.691Z,10.67
2019-03-02T09:47:00.816Z,10.50
2019-03-02T09:49:30.466Z,12.23
2019-03-02T09:52:01.183Z,10.93
2019-03-02T09:54:31.180Z,10.90
2019-03-02T09:57:01.105Z,11.40
2019-03-02T09:59:31.049Z,13.03
2019-03-02T10:02:01.001Z,12.00
2019-03-02T10:04:30.953Z,12.10
2019-03-02T10:07:01.935Z,11.30
2019-03-02T10:09:32.253Z,12.33
2019-03-02T10:12:02.287Z,12.93
2019-03-02T10:14:32.235Z,13.20
2019-03-02T10:17:02.700Z,13.47
2019-03-02T10:19:32.701Z,12.80
2019-03-02T10:22:02.790Z,13.10
2019-03-02T10:24:32.734Z,11.53
2019-03-02T10:27:02.667Z,12.27
2019-03-02T10:29:32.657Z,13.17
2019-03-02T10:32:04.425Z,12.40
2019-03-02T10:34:34.576Z,10.20
2019-03-02T10:37:07.243Z,12.50
2019-03-02T10:39:36.263Z,11.43
2019-03-02T10:42:06.211Z,10.90
2019-03-02T10:44:36.145Z,11.57
2019-03-02T10:47:06.233Z,12.07
2019-03-02T10:49:36.224Z,11.93
2019-03-02T10:52:06.177Z,11.67
2019-03-02T10:54:36.187Z,12.00
2019-03-02T10:57:06.218Z,12.43
2019-03-02T10:59:36.154Z,11.90
2019-03-02T11:02:06.469Z,12.80
2019-03-02T11:04:47.074Z,11.60
2019-03-02T11:07:34.946Z,13.70
2019-03-02T11:10:26.240Z,12.07
2019-03-02T11:13:33.490Z,12.90
2019-03-02T11:16:31.598Z,13.60
2019-03-02T11:19:20.610Z,11.40
2019-03-02T11:21:59.353Z,11.87
2019-03-02T11:25:06.406Z,12.87
2019-03-02T11:28:13.388Z,15.23
2019-03-02T11:30:55.802Z,13.70
2019-03-02T11:33:50.665Z,15.30
2019-03-02T11:36:55.014Z,15.87
2019-03-02T11:39:49.998Z,15.60
2019-03-02T11:42:27.722Z,15.50
2019-03-02T11:45:20.359Z,16.17
2019-03-02T11:48:24.429Z,15.20
2019-03-02T11:51:16.465Z,15.60
2019-03-02T11:54:04.218Z,17.07
2019-03-02T11:57:02.370Z,17.43
2019-03-02T11:59:42.021Z,16.53
2019-03-02T12:02:38.359Z,17.67
2019-03-02T12:05:31.353Z,16.27
2019-03-02T12:08:26.638Z,19.27
2019-03-02T12:11:07.073Z,19.20
2019-03-02T12:13:56.523Z,17.83
2019-03-02T12:16:35.110Z,20.67
2019-03-02T12:19:26.143Z,18.93
2019-03-02T12:22:12.779Z,17.40
2019-03-02T12:25:01.763Z,18.87
2019-03-02T12:27:55.026Z,17.50
2019-03-02T12:30:53.781Z,16.90
2019-03-02T12:33:57.633Z,18.03
2019-03-02T12:36:43.254Z,17.90
2019-03-02T12:39:25.124Z,18.03
2019-03-02T12:42:26.693Z,18.90
2019-03-02T12:45:17.381Z,20.17
2019-03-02T12:47:56.642Z,20.37
2019-03-02T12:50:55.015Z,20.60
2019-03-02T12:53:48.624Z,20.57
2019-03-02T12:56:37.593Z,21.40
2019-03-02T12:59:25.412Z,21.13
2019-03-02T13:02:14.059Z,19.73
2019-03-02T13:05:06.094Z,19.10
2019-03-02T13:07:58.076Z,19.97
2019-03-02T13:10:34.049Z,20.37
2019-03-02T13:13:23.597Z,20.63
2019-03-02T13:16:30.631Z,20.50
2019-03-02T13:19:16.560Z,20.17
2019-03-02T13:22:01.813Z,20.57
2019-03-02T13:24:53.790Z,19.63
2019-03-02T13:27:34.190Z,19.83
2019-03-02T13:30:25.707Z,19.80
2019-03-02T13:33:15.819Z,20.30
2019-03-02T13:35:59.864Z,21.37
2019-03-02T13:38:33.570Z,18.00
2019-03-02T13:41:29.880Z,19.77
2019-03-02T13:44:06.016Z,19.50
2019-03-02T13:46:56.562Z,19.00
2019-03-02T13:50:00.865Z,19.10
2019-03-02T13:52:53.226Z,18.37
2019-03-02T13:55:45.956Z,19.10
2019-03-02T13:58:34.325Z,19.83
2019-03-02T14:01:16.494Z,18.87
2019-03-02T14:03:55.265Z,19.23
2019-03-02T14:06:59.373Z,18.83
2019-03-02T14:09:55.803Z,19.53
2019-03-02T14:12:38.881Z,20.40
2019-03-02T14:15:26.778Z,19.63
2019-03-02T14:18:07.814Z,18.90
2019-03-02T14:21:01.199Z,19.40
2019-03-02T14:23:56.416Z,19.13
2019-03-02T14:26:44.084Z,19.80
2019-03-02T14:29:19.977Z,18.30
2019-03-02T14:32:13.764Z,18.20
2019-03-02T14:35:11.649Z,19.33
2019-03-02T14:37:59.341Z,19.17
2019-03-02T14:40:38.194Z,18.30
2019-03-02T14:43:45.271Z,18.70
2019-03-02T14:46:24.809Z,17.30
2019-03-02T14:49:16.415Z,16.67
2019-03-02T14:52:14.386Z,19.00
2019-03-02T14:54:56.889Z,18.53
2019-03-02T14:57:37.478Z,18.40
2019-03-02T15:00:26.660Z,18.53
2019-03-02T15:03:14.989Z,19.00
2019-03-02T15:06:08.772Z,16.67
2019-03-02T15:08:55.562Z,16.70
2019-03-02T15:11:41.681Z,17.27
2019-03-02T15:14:48.840Z,16.20
2019-03-02T15:17:40.594Z,16.00
2019-03-02T15:20:19.736Z,16.10
2019-03-02T15:23:08.690Z,16.93
2019-03-02T15:25:57.686Z,15.00
2019-03-02T15:28:38.591Z,15.50
2019-03-02T15:31:30.477Z,15.23
2019-03-02T15:34:34.601Z,17.70
2019-03-02T15:37:13.498Z,14.70
2019-03-02T15:40:11.675Z,16.53
2019-03-02T15:42:59.696Z,15.70
2019-03-02T15:45:36.286Z,13.70
2019-03-02T15:48:18.769Z,14.60
2019-03-02T15:51:10.917Z,14.53
2019-03-02T15:54:14.770Z,14.30
2019-03-02T15:56:56.245Z,13.60
2019-03-02T15:59:39.225Z,13.63
2019-03-02T16:02:25.992Z,13.43
2019-03-02T16:05:03.842Z,14.40
2019-03-02T16:07:49.957Z,15.17
2019-03-02T16:10:54.252Z,15.00
2019-03-02T16:13:33.902Z,15.40
2019-03-02T16:16:28.914Z,15.53
2019-03-02T16:19:09.172Z,13.70
2019-03-02T16:22:10.308Z,14.30
2019-03-02T16:25:05.384Z,12.67
2019-03-02T16:28:05.522Z,13.77
2019-03-02T16:30:53.669Z,12.43
2019-03-02T16:33:51.849Z,13.40
2019-03-02T16:36:50.030Z,13.80
2019-03-02T16:39:51.042Z,14.30
2019-03-02T16:42:40.021Z,12.33
2019-03-02T16:45:20.602Z,13.50
2019-03-02T16:48:09.703Z,13.60
2019-03-02T16:50:50.044Z,11.67
2019-03-02T16:53:31.308Z,12.33
2019-03-02T16:56:25.456Z,12.83
2019-03-02T16:59:05.230Z,12.37
2019-03-02T17:01:57.738Z,14.33
2019-03-02T17:04:33.428Z,11.10
2019-03-02T17:07:15.166Z,12.70
2019-03-02T17:10:00.369Z,12.63
2019-03-02T17:12:41.328Z,13.77
2019-03-02T17:15:23.665Z,12.40
2019-03-02T17:18:11.350Z,11.17
2019-03-02T17:20:46.181Z,13.70
2019-03-02T17:23:42.374Z,12.37
2019-03-02T17:26:33.696Z,11.40
2019-03-02T17:29:22.676Z,12.00
2019-03-02T17:32:18.613Z,12.43
2019-03-02T17:35:07.740Z,11.80
2019-03-02T17:38:08.077Z,11.70
2019-03-02T17:40:51.391Z,12.93
2019-03-02T17:43:46.525Z,13.10
2019-03-02T17:46:37.579Z,14.30
2019-03-02T17:49:29.843Z,12.40
2019-03-02T17:52:15.230Z,12.47
2019-03-02T17:54:57.067Z,13.90
2019-03-02T17:57:44.816Z,12.23
2019-03-02T18:00:46.084Z,13.03
2019-03-02T18:03:26.341Z,13.03
2019-03-02T18:06:05.722Z,14.73
2019-03-02T18:08:52.644Z,14.30
2019-03-02T18:11:46.495Z,15.80
2019-03-02T18:14:35.373Z,13.50
2019-03-02T18:17:33.499Z,15.77
2019-03-02T18:20:03.764Z,13.97
2019-03-02T18:22:35.088Z,17.20
2019-03-02T18:25:07.899Z,15.83
2019-03-02T18:27:38.713Z,15.77
2019-03-02T18:30:12.181Z,15.87
2019-03-02T18:32:42.170Z,16.90
2019-03-02T18:35:12.207Z,16.00
2019-03-02T18:37:42.721Z,15.57
2019-03-02T18:40:13.093Z,15.83
2019-03-02T18:42:43.015Z,17.77
2019-03-02T18:45:13.957Z,15.60
2019-03-02T18:47:43.900Z,14.80
2019-03-02T18:50:32.817Z,16.50
2019-03-02T18:53:06.105Z,16.87
2019-03-02T18:55:36.083Z,16.93
2019-03-02T18:58:07.788Z,17.73
2019-03-02T19:00:57.656Z,18.30
2019-03-02T19:03:27.470Z,18.50
2019-03-02T19:05:57.419Z,17.13
2019-03-02T19:08:27.366Z,15.30
2019-03-02T19:10:57.408Z,17.27
2019-03-02T19:13:27.434Z,16.47
2019-03-02T19:15:57.405Z,16.83
2019-03-02T19:18:27.340Z,16.40
2019-03-02T19:20:58.272Z,17.50
2019-03-02T19:23:28.297Z,16.17
2019-03-02T19:25:58.318Z,19.07
2019-03-02T19:28:28.257Z,16.70
2019-03-02T19:30:58.321Z,19.37
2019-03-02T19:33:28.366Z,18.53
2019-03-02T19:35:58.466Z,16.40
2019-03-02T19:38:28.497Z,16.90
2019-03-02T19:40:58.472Z,18.90
2019-03-02T19:43:28.400Z,16.70
2019-03-02T19:45:58.364Z,17.37
2019-03-02T19:48:28.288Z,20.30
2019-03-02T19:50:58.331Z,19.23
2019-03-02T19:53:28.259Z,18.60
2019-03-02T19:55:58.283Z,21.73
2019-03-02T19:58:28.229Z,20.23
2019-03-02T20:00:58.245Z,18.60
2019-03-02T20:03:28.266Z,18.70
2019-03-02T20:05:58.203Z,18.87
2019-03-02T20:08:28.290Z,17.40
2019-03-02T20:10:58.295Z,20.90
2019-03-02T20:13:28.243Z,19.30
2019-03-02T20:15:58.192Z,19.93
2019-03-02T20:18:28.271Z,21.20
2019-03-02T20:20:58.396Z,22.40
2019-03-02T20:23:36.944Z,22.50
2019-03-02T20:25:59.866Z,22.30
2019-03-02T20:28:29.880Z,21.40
2019-03-02T20:30:59.829Z,20.93
2019-03-02T20:33:29.786Z,19.37
2019-03-02T20:35:59.757Z,21.13
2019-03-02T20:38:29.698Z,21.10
2019-03-02T20:40:59.630Z,21.50
2019-03-02T20:43:29.654Z,20.37
2019-03-02T20:45:59.674Z,20.00
2019-03-02T20:48:29.601Z,22.03
2019-03-02T20:50:59.552Z,21.07
2019-03-02T20:53:29.498Z,20.57
2019-03-02T20:55:59.487Z,19.93
2019-03-02T20:58:29.411Z,21.50
2019-03-02T21:00:59.449Z,20.53
2019-03-02T21:03:29.397Z,22.30
2019-03-02T21:05:59.375Z,18.83
2019-03-02T21:08:29.339Z,20.00
2019-03-02T21:10:59.361Z,19.60
2019-03-02T21:13:29.376Z,21.03
2019-03-02T21:15:59.518Z,19.90
2019-03-02T21:18:29.458Z,20.20
2019-03-02T21:20:59.423Z,20.07
2019-03-02T21:23:29.368Z,19.13
2019-03-02T21:25:59.306Z,22.00
2019-03-02T21:28:29.427Z,21.67
2019-03-02T21:30:59.506Z,21.70
2019-03-02T21:33:29.498Z,21.00
2019-03-02T21:35:59.443Z,21.00
2019-03-02T21:38:30.091Z,21.90
2019-03-02T21:41:00.024Z,21.20
2019-03-02T21:43:30.128Z,21.40
2019-03-02T21:46:00.061Z,21.50
2019-03-02T21:48:30.150Z,19.10
2019-03-02T21:51:00.576Z,19.20
2019-03-02T21:53:30.559Z,20.30
2019-03-02T21:56:00.464Z,23.53
2019-03-02T21:58:30.440Z,23.80
2019-03-02T22:01:00.460Z,25.97
2019-03-02T22:03:30.480Z,22.80
2019-03-02T22:06:00.440Z,26.07
2019-03-02T22:08:30.542Z,22.67
2019-03-02T22:11:06.204Z,24.20
2019-03-02T22:13:36.941Z,21.27
2019-03-02T22:16:07.064Z,22.43
2019-03-02T22:18:37.016Z,22.93
2019-03-02T22:21:06.951Z,22.97
2019-03-02T22:23:36.892Z,19.23
2019-03-02T22:26:06.929Z,20.37
2019-03-02T22:28:37.027Z,22.47
2019-03-02T22:31:07.033Z,22.20
2019-03-02T22:33:37.091Z,23.50
2019-03-02T22:36:07.099Z,22.20
2019-03-02T22:38:37.060Z,20.67
2019-03-02T22:41:07.123Z,25.23
2019-03-02T22:43:37.153Z,26.60
2019-03-02T22:46:07.125Z,24.27
2019-03-02T22:48:37.509Z,22.77
2019-03-02T22:51:07.581Z,24.03
2019-03-02T22:53:37.552Z,23.20
2019-03-02T22:56:07.723Z,21.93
2019-03-02T22:58:36.888Z,20.70
2019-03-02T23:01:42.987Z,19.13
2019-03-02T23:04:12.980Z,20.97
2019-03-02T23:06:43.040Z,20.07
2019-03-02T23:09:13.032Z,19.37
2019-03-02T23:11:42.960Z,18.20
2019-03-02T23:14:13.134Z,22.00
2019-03-02T23:16:43.046Z,17.40
2019-03-02T23:19:13.120Z,16.80
2019-03-02T23:21:43.203Z,17.37
2019-03-02T23:24:13.236Z,15.87
2019-03-02T23:26:43.333Z,15.10
2019-03-02T23:29:13.381Z,14.77
2019-03-02T23:31:44.973Z,15.23
2019-03-02T23:34:15.102Z,12.70
2019-03-02T23:36:45.057Z,12.50
2019-03-02T23:39:15.016Z,11.30
2019-03-02T23:41:45.017Z,11.83
2019-03-02T23:44:15.071Z,11.33
2019-03-02T23:46:45.079Z,12.43
2019-03-02T23:49:15.064Z,15.30
2019-03-02T23:51:44.987Z,13.17
2019-03-02T23:54:15.026Z,10.60
2019-03-02T23:56:45.050Z,9.20
2019-03-02T23:59:14.990Z,11.50
